sensor_id;sensor_type;location;lat;lon;timestamp;pressure;altitude;pressure_sealevel;temperature;humidity
38163;BME280;23977;53.078;18.248;2023-02-23T08:27:58;101333.16;;;7.15;48.22
38163;BME280;23977;53.078;18.248;2023-02-23T08:30:29;101190.91;;;6.52;48.96
38163;BME280;23977;53.078;18.248;2023-02-23T08:32:58;101141.88;;;6.48;47.97
38163;BME280;23977;53.078;18.248;2023-02-23T08:35:27;101131.00;;;6.62;47.94
38163;BME280;23977;53.078;18.248;2023-02-23T08:37:56;101330.16;;;7.52;48.87
38163;BME280;23977;53.078;18.248;2023-02-23T08:40:23;101205.81;;;6.64;48.67
38163;BME280;23977;53.078;18.248;2023-02-23T08:42:49;101178.00;;;7.87;46.39
38163;BME280;23977;53.078;18.248;2023-02-23T08:45:18;101116.69;;;9.10;43.34
38163;BME280;23977;53.078;18.248;2023-02-23T08:52:47;101151.53;;;12.67;37.15
38163;BME280;23977;53.078;18.248;2023-02-23T08:55:13;101189.91;;;14.05;34.55
38163;BME280;23977;53.078;18.248;2023-02-23T08:57:40;101200.75;;;15.67;32.05
38163;BME280;23977;53.078;18.248;2023-02-23T09:00:08;101301.81;;;16.13;31.76
38163;BME280;23977;53.078;18.248;2023-02-23T09:02:43;101390.94;;;17.94;30.43
38163;BME280;23977;53.078;18.248;2023-02-23T09:05:15;101369.50;;;16.91;31.67
38163;BME280;23977;53.078;18.248;2023-02-23T09:07:43;101393.13;;;16.81;30.66
38163;BME280;23977;53.078;18.248;2023-02-23T09:10:16;101372.28;;;16.15;32.42
38163;BME280;23977;53.078;18.248;2023-02-23T09:12:44;101366.03;;;16.00;32.04
38163;BME280;23977;53.078;18.248;2023-02-23T09:15:11;101363.19;;;15.24;32.95
38163;BME280;23977;53.078;18.248;2023-02-23T09:17:36;101372.00;;;13.46;35.88
38163;BME280;23977;53.078;18.248;2023-02-23T09:20:04;101327.97;;;14.48;35.22
38163;BME280;23977;53.078;18.248;2023-02-23T09:22:30;101316.13;;;14.90;33.81
38163;BME280;23977;53.078;18.248;2023-02-23T09:24:57;101348.78;;;14.29;36.01
38163;BME280;23977;53.078;18.248;2023-02-23T09:27:22;101342.13;;;16.43;32.35
38163;BME280;23977;53.078;18.248;2023-02-23T09:29:48;101333.00;;;17.18;31.50
38163;BME280;23977;53.078;18.248;2023-02-23T09:32:13;101275.28;;;18.14;29.44
38163;BME280;23977;53.078;18.248;2023-02-23T09:34:39;101332.31;;;17.74;29.83
38163;BME280;23977;53.078;18.248;2023-02-23T09:37:05;101262.25;;;16.67;30.29
38163;BME280;23977;53.078;18.248;2023-02-23T09:39:31;101330.50;;;18.03;30.20
38163;BME280;23977;53.078;18.248;2023-02-23T09:47:31;101299.47;;;19.66;27.92
38163;BME280;23977;53.078;18.248;2023-02-23T09:50:02;101287.53;;;21.05;26.36
38163;BME280;23977;53.078;18.248;2023-02-23T09:52:44;101288.28;;;21.44;25.87
38163;BME280;23977;53.078;18.248;2023-02-23T09:55:27;101315.25;;;20.94;26.34
38163;BME280;23977;53.078;18.248;2023-02-23T09:57:55;101310.22;;;20.46;26.44
38163;BME280;23977;53.078;18.248;2023-02-23T10:00:24;101303.91;;;18.57;28.48
38163;BME280;23977;53.078;18.248;2023-02-23T10:05:25;101314.81;;;16.54;31.97
38163;BME280;23977;53.078;18.248;2023-02-23T10:10:49;101281.34;;;16.87;30.85
38163;BME280;23977;53.078;18.248;2023-02-23T10:16:02;101319.78;;;19.48;28.30
38163;BME280;23977;53.078;18.248;2023-02-23T10:26:59;101319.75;;;17.60;30.58
38163;BME280;23977;53.078;18.248;2023-02-23T10:29:40;101303.34;;;17.33;30.61
38163;BME280;23977;53.078;18.248;2023-02-23T10:35:13;101313.34;;;15.38;33.14
38163;BME280;23977;53.078;18.248;2023-02-23T10:37:39;101310.69;;;14.58;35.10
38163;BME280;23977;53.078;18.248;2023-02-23T10:40:06;101201.09;;;12.18;37.91
38163;BME280;23977;53.078;18.248;2023-02-23T10:42:33;101270.16;;;10.69;41.51
38163;BME280;23977;53.078;18.248;2023-02-23T10:44:59;101251.00;;;9.61;44.36
38163;BME280;23977;53.078;18.248;2023-02-23T10:47:29;101283.72;;;9.23;46.77
38163;BME280;23977;53.078;18.248;2023-02-23T10:49:56;101300.09;;;9.38;47.96
38163;BME280;23977;53.078;18.248;2023-02-23T10:52:28;101271.97;;;9.25;48.01
38163;BME280;23977;53.078;18.248;2023-02-23T10:54:58;101290.69;;;9.34;48.59
38163;BME280;23977;53.078;18.248;2023-02-23T10:57:29;101273.28;;;8.71;49.83
38163;BME280;23977;53.078;18.248;2023-02-23T11:00:10;101288.94;;;8.43;51.22
38163;BME280;23977;53.078;18.248;2023-02-23T11:02:52;101230.63;;;7.70;53.58
38163;BME280;23977;53.078;18.248;2023-02-23T11:05:30;101285.28;;;8.13;53.95
38163;BME280;23977;53.078;18.248;2023-02-23T11:10:40;101253.34;;;7.94;53.39
38163;BME280;23977;53.078;18.248;2023-02-23T11:13:21;101268.50;;;8.03;55.15
38163;BME280;23977;53.078;18.248;2023-02-23T11:15:47;101224.66;;;7.99;54.22
38163;BME280;23977;53.078;18.248;2023-02-23T11:18:23;101253.31;;;8.36;54.33
38163;BME280;23977;53.078;18.248;2023-02-23T11:20:50;101260.25;;;8.37;53.92
38163;BME280;23977;53.078;18.248;2023-02-23T11:25:47;101210.25;;;7.92;55.58
38163;BME280;23977;53.078;18.248;2023-02-23T11:28:28;101225.72;;;8.18;55.20
38163;BME280;23977;53.078;18.248;2023-02-23T11:31:24;101240.25;;;8.23;54.58
38163;BME280;23977;53.078;18.248;2023-02-23T11:33:54;101245.00;;;8.20;56.40
38163;BME280;23977;53.078;18.248;2023-02-23T11:39:13;101215.72;;;8.00;55.44
38163;BME280;23977;53.078;18.248;2023-02-23T11:41:43;101234.66;;;7.65;58.45
38163;BME280;23977;53.078;18.248;2023-02-23T11:44:23;101219.50;;;7.55;58.93
38163;BME280;23977;53.078;18.248;2023-02-23T11:46:50;101217.06;;;7.64;58.04
38163;BME280;23977;53.078;18.248;2023-02-23T11:49:24;101168.09;;;7.37;59.01
38163;BME280;23977;53.078;18.248;2023-02-23T11:51:51;101206.34;;;7.65;58.44
38163;BME280;23977;53.078;18.248;2023-02-23T11:54:27;101204.75;;;7.84;58.26
38163;BME280;23977;53.078;18.248;2023-02-23T11:56:54;101168.88;;;7.49;59.84
38163;BME280;23977;53.078;18.248;2023-02-23T11:59:33;101190.94;;;7.59;58.56
38163;BME280;23977;53.078;18.248;2023-02-23T12:02:22;101201.03;;;7.23;59.95
38163;BME280;23977;53.078;18.248;2023-02-23T12:07:50;101197.41;;;7.24;62.75
38163;BME280;23977;53.078;18.248;2023-02-23T12:10:54;101189.41;;;7.35;62.20
38163;BME280;23977;53.078;18.248;2023-02-23T12:13:30;101187.47;;;7.58;60.63
38163;BME280;23977;53.078;18.248;2023-02-23T12:18:54;101139.16;;;7.45;61.17
38163;BME280;23977;53.078;18.248;2023-02-23T12:24:14;101144.47;;;7.45;61.85
38163;BME280;23977;53.078;18.248;2023-02-23T12:26:50;101155.56;;;7.60;60.95
38163;BME280;23977;53.078;18.248;2023-02-23T12:29:28;101149.81;;;7.34;64.14
38163;BME280;23977;53.078;18.248;2023-02-23T12:32:01;101129.94;;;7.39;61.82
38163;BME280;23977;53.078;18.248;2023-02-23T12:34:36;101133.56;;;7.38;61.77
38163;BME280;23977;53.078;18.248;2023-02-23T12:37:28;101135.38;;;7.38;62.57
38163;BME280;23977;53.078;18.248;2023-02-23T12:39:57;101141.25;;;7.41;63.44
38163;BME280;23977;53.078;18.248;2023-02-23T12:42:37;101152.53;;;7.65;61.72
38163;BME280;23977;53.078;18.248;2023-02-23T12:45:06;101136.06;;;7.40;62.56
38163;BME280;23977;53.078;18.248;2023-02-23T12:47:43;101136.44;;;7.35;63.74
38163;BME280;23977;53.078;18.248;2023-02-23T12:50:30;101119.88;;;7.33;65.21
38163;BME280;23977;53.078;18.248;2023-02-23T12:53:00;101119.16;;;7.31;64.20
38163;BME280;23977;53.078;18.248;2023-02-23T12:55:49;101097.16;;;7.10;63.07
38163;BME280;23977;53.078;18.248;2023-02-23T12:58:28;101102.50;;;6.98;64.80
38163;BME280;23977;53.078;18.248;2023-02-23T13:01:09;101052.59;;;6.94;67.05
38163;BME280;23977;53.078;18.248;2023-02-23T13:04:45;101091.25;;;7.27;65.94
38163;BME280;23977;53.078;18.248;2023-02-23T13:15:23;101041.56;;;7.10;64.74
38163;BME280;23977;53.078;18.248;2023-02-23T13:17:58;101065.41;;;7.40;65.71
38163;BME280;23977;53.078;18.248;2023-02-23T13:23:17;101061.97;;;7.50;65.36
38163;BME280;23977;53.078;18.248;2023-02-23T13:26:10;101049.88;;;7.57;66.62
38163;BME280;23977;53.078;18.248;2023-02-23T13:31:39;101038.75;;;7.63;65.68
38163;BME280;23977;53.078;18.248;2023-02-23T13:34:10;101014.31;;;7.50;66.64
38163;BME280;23977;53.078;18.248;2023-02-23T13:36:38;101015.63;;;7.65;65.88
38163;BME280;23977;53.078;18.248;2023-02-23T13:45:01;101018.50;;;7.93;65.55
38163;BME280;23977;53.078;18.248;2023-02-23T13:47:51;100998.47;;;7.69;65.38
38163;BME280;23977;53.078;18.248;2023-02-23T13:50:25;101002.25;;;7.67;65.21
